X  Tanca Dades meteorològiques de l'aviació METAR        EDDG Twente
Temperatura
17°C Temperatura
8°C Rosada
55% Humitat



Vent
8 M/S
18 MPH
30 KM/H
16 NUS



240°
OSO
Condicions actuals

Mostly Cloudy Força ennuvolat
Pressió 1004 (hPa) - 29.65 (inHg)
Visibilitat 6 (milla) - 10 (km)
Aeroport
Codi aeroport EDDG

Ubicació: Twente
Distància: 7 (km)

Metar:
METAR EDDG 151020Z AUTO 24016KT 9999 SCT039 BKN046 17/08 Q1004 TEMPO 22020G35KT

Temps: 15-06-2024 12:20 CEST